Time;durP1;ratioP1;P1;durP2;ratioP2;P2;SDS_P1;SDS_P2;PMS_P1;PMS_P2;Temp;Humidity;BMP_temperature;BMP_pressure;BME280_temperature;BME280_humidity;BME280_pressure;Samples;Min_cycle;Max_cycle;Signal;HPM_P1;HPM_P2
2022/01/05 00:01:25;;;;;;;0.85;0.52;;;;;;;0.55;76.94;99176.34;4961693;28;20051;-56
2022/01/05 00:03:52;;;;;;;2.35;0.30;;;;;;;0.53;76.22;99172.03;4967754;28;20531;-51
2022/01/05 00:06:19;;;;;;;0.63;0.35;;;;;;;0.48;76.50;99174.47;4964874;28;20046;-54
2022/01/05 00:08:45;;;;;;;5.03;0.63;;;;;;;0.47;76.75;99178.69;4963630;28;20070;-53
2022/01/05 00:11:13;;;;;;;5.57;0.98;;;;;;;0.44;76.18;99183.69;4963196;28;20557;-54
2022/01/05 00:13:40;;;;;;;1.88;0.43;;;;;;;0.43;76.77;99187.06;4968305;28;20051;-49
2022/01/05 00:16:07;;;;;;;5.68;1.08;;;;;;;0.42;76.98;99185.34;4961245;28;20055;-50
2022/01/05 00:18:34;;;;;;;6.43;1.23;;;;;;;0.37;76.65;99171.63;4966546;28;20067;-52
2022/01/05 00:21:03;;;;;;;3.33;1.17;;;;;;;0.36;76.30;99185.19;4963802;28;20053;-55
2022/01/05 00:23:30;;;;;;;0.95;0.50;;;;;;;0.36;76.27;99185.19;4961544;28;20051;-55
2022/01/05 00:25:59;;;;;;;8.07;0.93;;;;;;;0.35;76.33;99181.81;4969815;28;20061;-53
2022/01/05 00:28:26;;;;;;;1.92;0.40;;;;;;;0.33;76.38;99177.47;4964957;28;20102;-53
2022/01/05 00:30:52;;;;;;;1.15;0.38;;;;;;;0.32;76.14;99183.41;4965278;28;20569;-50
2022/01/05 00:33:19;;;;;;;0.98;0.20;;;;;;;0.31;76.17;99182.56;4969625;28;20050;-58
2022/01/05 00:35:45;;;;;;;4.85;1.00;;;;;;;0.34;76.22;99192.81;4968169;28;20097;-49
2022/01/05 00:38:12;;;;;;;2.28;0.45;;;;;;;0.34;77.06;99192.81;4966392;28;20087;-55
2022/01/05 00:40:39;;;;;;;2.75;0.75;;;;;;;0.41;77.01;99188.75;4968544;28;20058;-56
2022/01/05 00:43:05;;;;;;;0.55;0.20;;;;;;;0.41;77.34;99185.31;4978256;28;20047;-57
2022/01/05 00:45:32;;;;;;;6.50;1.00;;;;;;;0.41;77.33;99198.94;4962459;28;20046;-48
2022/01/05 00:47:59;;;;;;;6.50;0.80;;;;;;;0.44;76.84;99198.97;4963439;28;20049;-52
2022/01/05 00:50:25;;;;;;;3.83;0.80;;;;;;;0.46;77.55;99193.94;4966439;28;20043;-52
2022/01/05 00:52:53;;;;;;;4.22;0.98;;;;;;;0.46;77.82;99187.16;4960234;28;20059;-50
2022/01/05 00:55:19;;;;;;;2.30;0.95;;;;;;;0.48;77.62;99188.03;4964596;28;20050;-49
2022/01/05 00:57:46;;;;;;;2.22;0.77;;;;;;;0.54;77.22;99194.97;4962701;28;20039;-49
2022/01/05 01:00:13;;;;;;;2.15;0.55;;;;;;;0.57;77.57;99199.31;4961527;28;20649;-47
2022/01/05 01:02:40;;;;;;;2.00;0.40;;;;;;;0.59;76.63;99198.50;4965434;28;20495;-50
2022/01/05 01:05:07;;;;;;;3.97;0.85;;;;;;;0.60;77.36;99199.34;4970073;28;20062;-50
2022/01/05 01:07:34;;;;;;;2.95;0.60;;;;;;;0.61;77.16;99207.03;4966962;28;20050;-54
2022/01/05 01:10:01;;;;;;;4.60;0.57;;;;;;;0.62;76.89;99207.91;4966356;28;20055;-55
2022/01/05 01:12:28;;;;;;;7.82;0.88;;;;;;;0.66;76.57;99204.63;4964331;28;20053;-47
2022/01/05 01:14:56;;;;;;;2.42;0.50;;;;;;;0.69;77.57;99214.88;4966071;28;20047;-50
2022/01/05 01:17:24;;;;;;;6.25;1.35;;;;;;;0.75;76.36;99222.66;4964590;28;20506;-51
2022/01/05 01:19:53;;;;;;;1.63;0.70;;;;;;;0.75;77.62;99204.81;4961773;28;20093;-55
2022/01/05 01:22:21;;;;;;;4.25;1.02;;;;;;;0.75;76.30;99198.88;4958701;28;20170;-54
2022/01/05 01:24:49;;;;;;;3.40;0.35;;;;;;;0.74;76.26;99198.00;4964061;28;20086;-53
2022/01/05 01:27:20;;;;;;;3.42;0.75;;;;;;;0.72;76.87;99199.66;4965047;28;20502;-51
2022/01/05 01:29:48;;;;;;;2.35;0.65;;;;;;;0.70;76.28;99206.41;4964902;28;20055;-54
2022/01/05 01:32:14;;;;;;;3.50;0.63;;;;;;;0.65;76.58;99202.91;4961450;28;20043;-50
2022/01/05 01:34:41;;;;;;;2.60;0.63;;;;;;;0.61;77.01;99206.19;4967012;28;20054;-50
2022/01/05 01:37:07;;;;;;;2.05;0.57;;;;;;;0.59;76.54;99203.59;4969893;28;20471;-48
2022/01/05 01:39:34;;;;;;;3.50;0.57;;;;;;;0.57;77.43;99209.50;4965437;28;20058;-53
2022/01/05 01:42:01;;;;;;;6.13;0.75;;;;;;;0.57;76.76;99210.34;4964157;28;21740;-52
2022/01/05 01:44:28;;;;;;;7.82;0.80;;;;;;;0.59;76.36;99212.94;4964455;28;20055;-55
2022/01/05 01:46:55;;;;;;;3.97;0.93;;;;;;;0.57;76.46;99217.16;4966530;28;20058;-57
2022/01/05 01:49:21;;;;;;;4.05;0.60;;;;;;;0.51;76.89;99223.78;4966195;28;20093;-51
2022/01/05 01:51:48;;;;;;;3.03;0.55;;;;;;;0.50;77.53;99219.53;4961222;28;20587;-47
2022/01/05 01:54:15;;;;;;;3.80;0.70;;;;;;;0.52;76.91;99222.13;4964335;28;20046;-51
2022/01/05 01:56:46;;;;;;;4.28;1.13;;;;;;;0.55;76.67;99216.22;4960065;28;20059;-49
2022/01/05 01:59:13;;;;;;;1.83;1.17;;;;;;;0.55;76.96;99211.13;4958472;28;20051;-57
2022/01/05 02:01:40;;;;;;;4.07;0.28;;;;;;;0.55;77.51;99211.13;4960004;28;20047;-52
2022/01/05 02:04:07;;;;;;;3.78;1.08;;;;;;;0.57;77.57;99215.44;4961850;28;20046;-52
2022/01/05 02:06:34;;;;;;;6.85;1.08;;;;;;;0.58;76.95;99221.41;4966494;28;20042;-56
2022/01/05 02:09:01;;;;;;;6.97;1.35;;;;;;;0.64;77.78;99224.09;4964528;28;20113;-50
2022/01/05 02:11:27;;;;;;;10.68;1.10;;;;;;;0.64;76.46;99216.44;4965921;28;20047;-52
2022/01/05 02:13:54;;;;;;;4.85;0.90;;;;;;;0.64;77.38;99224.09;4964310;28;21435;-52
2022/01/05 02:16:29;;;;;;;3.10;0.73;;;;;;;0.66;76.31;99230.09;4963289;28;20117;-52
2022/01/05 02:18:58;;;;;;;1.52;1.15;;;;;;;0.64;77.44;99236.84;4963154;28;20126;-54
2022/01/05 02:21:34;;;;;;;7.78;1.00;;;;;;;0.64;76.40;99234.28;4960834;28;20471;-52
2022/01/05 02:24:03;;;;;;;7.28;1.48;;;;;;;0.63;76.66;99235.13;4964609;28;21203;-49
2022/01/05 02:26:30;;;;;;;7.20;0.65;;;;;;;0.67;76.92;99231.81;4962428;28;20097;-48
2022/01/05 02:28:57;;;;;;;5.15;0.65;;;;;;;0.67;76.29;99236.91;4964005;28;20063;-51
2022/01/05 02:31:24;;;;;;;6.75;0.60;;;;;;;0.66;76.13;99245.38;4958012;28;20051;-60
2022/01/05 02:33:50;;;;;;;7.35;1.08;;;;;;;0.67;76.30;99242.00;4958956;28;20400;-54
2022/01/05 02:36:21;;;;;;;5.35;0.55;;;;;;;0.67;76.01;99246.25;4968487;28;20055;-52
2022/01/05 02:38:49;;;;;;;6.38;1.02;;;;;;;0.67;76.37;99266.66;4962945;28;20051;-53
2022/01/05 02:41:16;;;;;;;7.03;1.02;;;;;;;0.66;76.03;99255.59;4964637;28;20443;-54
2022/01/05 02:43:44;;;;;;;4.75;1.17;;;;;;;0.68;77.20;99261.59;4966514;28;20047;-52
2022/01/05 02:46:15;;;;;;;1.38;0.50;;;;;;;0.67;77.34;99262.41;4969240;28;20051;-51
2022/01/05 02:48:42;;;;;;;4.75;0.68;;;;;;;0.71;76.97;99259.09;4966651;28;20121;-47
2022/01/05 02:51:10;;;;;;;10.35;1.45;;;;;;;0.74;76.69;99248.13;4968119;28;20110;-52
2022/01/05 02:53:37;;;;;;;2.13;0.35;;;;;;;0.72;77.25;99245.56;4966478;28;20097;-54
2022/01/05 02:56:04;;;;;;;3.75;0.88;;;;;;;0.74;76.57;99249.00;4961685;28;20046;-57
2022/01/05 02:58:31;;;;;;;9.15;1.02;;;;;;;0.74;75.93;99243.88;4967696;28;20101;-56
2022/01/05 03:00:58;;;;;;;3.13;0.73;;;;;;;0.76;75.82;99249.03;4963489;28;20414;-56
2022/01/05 03:03:25;;;;;;;7.57;0.70;;;;;;;0.73;75.75;99249.81;4963512;28;20129;-55
2022/01/05 03:05:52;;;;;;;3.72;0.28;;;;;;;0.70;76.89;99248.88;4967129;28;20066;-54
2022/01/05 03:08:19;;;;;;;2.78;0.45;;;;;;;0.72;76.31;99253.19;4965861;28;20046;-55
2022/01/05 03:10:46;;;;;;;9.40;1.33;;;;;;;0.73;76.17;99265.13;4978497;28;20109;-51
2022/01/05 03:13:12;;;;;;;3.28;0.82;;;;;;;0.70;76.40;99266.72;4968314;28;20050;-56
2022/01/05 03:15:40;;;;;;;5.07;0.80;;;;;;;0.71;76.30;99266.75;4966426;28;20105;-53
2022/01/05 03:18:07;;;;;;;15.50;0.80;;;;;;;0.71;76.80;99274.41;4961634;28;20053;-48
2022/01/05 03:20:34;;;;;;;4.70;0.77;;;;;;;0.70;76.60;99262.47;4966014;28;20042;-57
2022/01/05 03:23:03;;;;;;;3.80;0.82;;;;;;;0.68;76.01;99274.34;4964530;28;20063;-52
2022/01/05 03:25:31;;;;;;;7.63;0.63;;;;;;;0.67;76.17;99280.25;4966460;28;20050;-51
2022/01/05 03:27:58;;;;;;;2.42;0.50;;;;;;;0.67;76.55;99290.44;4962086;28;20046;-51
2022/01/05 03:30:27;;;;;;;4.70;0.80;;;;;;;0.66;76.22;99291.28;4969155;28;20132;-52
2022/01/05 03:33:12;;;;;;;5.68;1.15;;;;;;;0.68;76.85;99299.84;4962623;28;20055;-56
2022/01/05 03:35:43;;;;;;;7.38;0.82;;;;;;;0.67;76.54;99300.63;4970329;28;20415;-58
2022/01/05 03:38:10;;;;;;;11.88;1.33;;;;;;;0.68;76.60;99307.47;4963909;28;20055;-54
2022/01/05 03:40:37;;;;;;;4.93;1.35;;;;;;;0.68;75.71;99315.13;4969686;28;20113;-48
2022/01/05 03:43:05;;;;;;;7.63;1.08;;;;;;;0.69;76.76;99308.31;4974745;28;20197;-58
2022/01/05 03:45:32;;;;;;;1.48;0.35;;;;;;;0.67;76.20;99327.84;4968409;28;20506;-49
2022/01/05 03:48:00;;;;;;;3.22;0.75;;;;;;;0.67;76.15;99318.47;4958134;28;20101;-53
2022/01/05 03:50:27;;;;;;;4.32;0.40;;;;;;;0.65;77.17;99327.78;4959648;28;20056;-59
2022/01/05 03:52:54;;;;;;;4.38;0.93;;;;;;;0.66;76.95;99328.63;4961762;28;20096;-57
2022/01/05 03:55:20;;;;;;;6.65;0.98;;;;;;;0.67;77.04;99328.66;4962945;28;20101;-54
2022/01/05 03:57:47;;;;;;;4.38;0.45;;;;;;;0.67;76.20;99338.88;4963062;28;20704;-51
2022/01/05 04:00:14;;;;;;;4.93;0.60;;;;;;;0.66;76.85;99332.06;4963287;28;20046;-54
2022/01/05 04:02:41;;;;;;;4.30;0.65;;;;;;;0.66;77.10;99347.34;4961633;28;20050;-50
2022/01/05 04:05:08;;;;;;;3.33;0.47;;;;;;;0.66;77.01;99349.91;4960830;28;20101;-51
2022/01/05 04:07:35;;;;;;;7.80;0.90;;;;;;;0.68;77.28;99350.81;4962906;28;20450;-49
2022/01/05 04:10:03;;;;;;;7.47;1.92;;;;;;;0.69;77.03;99352.53;4967015;28;20063;-54
2022/01/05 04:12:30;;;;;;;3.42;0.65;;;;;;;0.70;77.54;99354.25;4963004;28;20051;-50
2022/01/05 04:14:56;;;;;;;8.30;1.05;;;;;;;0.72;77.70;99360.25;4965727;28;20047;-54
2022/01/05 04:17:23;;;;;;;4.13;0.70;;;;;;;0.70;77.20;99356.81;4965288;28;20066;-60
2022/01/05 04:19:49;;;;;;;8.23;0.70;;;;;;;0.71;76.96;99360.22;4964006;28;20543;-51
2022/01/05 04:22:16;;;;;;;5.10;0.70;;;;;;;0.71;77.75;99366.16;4963036;28;20055;-51
2022/01/05 04:24:42;;;;;;;1.85;0.77;;;;;;;0.70;78.76;99368.66;4964654;28;20455;-53
2022/01/05 04:27:09;;;;;;;2.97;0.60;;;;;;;0.72;78.28;99370.47;4962911;28;20047;-54
2022/01/05 04:29:36;;;;;;;5.47;0.40;;;;;;;0.74;78.27;99363.69;4963949;28;20109;-52
2022/01/05 04:32:07;;;;;;;1.52;0.65;;;;;;;0.73;77.67;99372.19;4963273;28;20395;-53
2022/01/05 04:34:34;;;;;;;3.83;1.00;;;;;;;0.77;77.85;99368.00;4964651;28;20384;-49
2022/01/05 04:37:22;;;;;;;4.53;0.77;;;;;;;0.83;78.69;99369.84;4964668;28;20154;-53
2022/01/05 04:39:49;;;;;;;2.38;0.60;;;;;;;0.82;77.50;99365.59;4965746;28;20058;-52
2022/01/05 04:42:16;;;;;;;1.95;1.48;;;;;;;0.81;78.42;99380.00;4961328;28;20050;-51
2022/01/05 04:44:43;;;;;;;1.75;0.57;;;;;;;0.82;78.08;99391.09;4961192;28;20043;-51
2022/01/05 04:47:11;;;;;;;4.82;1.23;;;;;;;0.81;77.92;99391.91;4964644;28;20058;-48
2022/01/05 04:49:39;;;;;;;4.97;0.55;;;;;;;0.80;78.91;99400.38;4964147;28;20678;-48
2022/01/05 04:52:06;;;;;;;6.00;0.75;;;;;;;0.84;77.74;99404.75;4962913;28;20058;-51
2022/01/05 04:54:32;;;;;;;7.68;1.35;;;;;;;0.82;78.95;99404.72;4966131;28;20055;-50
2022/01/05 04:56:59;;;;;;;8.32;1.27;;;;;;;0.84;77.99;99403.03;4962759;28;20046;-51
2022/01/05 04:59:26;;;;;;;5.05;0.73;;;;;;;0.82;78.94;99403.84;4961123;28;20054;-50
2022/01/05 05:01:53;;;;;;;7.45;1.42;;;;;;;0.83;77.99;99403.88;4963859;28;20059;-53
2022/01/05 05:04:19;;;;;;;1.73;0.75;;;;;;;0.82;77.71;99408.94;4962733;28;20081;-50
2022/01/05 05:06:47;;;;;;;5.28;1.05;;;;;;;0.82;78.04;99416.59;4962481;28;20672;-51
2022/01/05 05:09:13;;;;;;;4.05;0.77;;;;;;;0.80;78.37;99410.56;4962794;28;20391;-53
2022/01/05 05:11:40;;;;;;;2.17;0.82;;;;;;;0.77;78.45;99417.31;4961982;28;20101;-52
2022/01/05 05:14:07;;;;;;;4.13;0.90;;;;;;;0.78;78.28;99423.31;4963597;28;20447;-51
2022/01/05 05:16:33;;;;;;;7.57;0.75;;;;;;;0.76;77.49;99425.81;4968205;28;20113;-51
2022/01/05 05:19:00;;;;;;;10.35;1.23;;;;;;;0.77;78.24;99432.63;4960170;28;20455;-47
2022/01/05 05:21:27;;;;;;;4.88;1.02;;;;;;;0.80;77.22;99451.34;4961232;28;20116;-52
2022/01/05 05:23:53;;;;;;;4.03;0.80;;;;;;;0.82;77.78;99450.59;4964738;28;20757;-50
2022/01/05 05:26:20;;;;;;;5.45;0.68;;;;;;;0.84;77.67;99448.09;4964853;28;20047;-54
2022/01/05 05:28:46;;;;;;;11.45;1.17;;;;;;;0.83;78.08;99451.44;4964702;28;20043;-54
2022/01/05 05:31:13;;;;;;;10.68;0.57;;;;;;;0.84;77.06;99450.66;4961540;28;20042;-57
2022/01/05 05:33:40;;;;;;;4.50;0.57;;;;;;;0.83;78.22;99461.66;4960864;28;20074;-51
2022/01/05 05:36:06;;;;;;;3.60;0.60;;;;;;;0.82;77.79;99455.69;4962306;28;20101;-53
2022/01/05 05:38:33;;;;;;;4.65;1.13;;;;;;;0.82;77.38;99470.13;4961659;28;20605;-52
2022/01/05 05:41:00;;;;;;;1.10;0.50;;;;;;;0.83;77.99;99467.63;4963308;28;20063;-55
2022/01/05 05:43:27;;;;;;;9.25;1.17;;;;;;;0.85;77.28;99465.97;4963768;28;20047;-49
2022/01/05 05:45:53;;;;;;;3.85;0.98;;;;;;;0.86;78.15;99464.28;4964395;28;20054;-52
2022/01/05 05:48:20;;;;;;;2.55;0.70;;;;;;;0.90;78.65;99458.44;4975062;28;20129;-57
2022/01/05 05:50:47;;;;;;;2.05;0.98;;;;;;;0.89;78.18;99454.19;4957330;28;20063;-52
2022/01/05 05:53:14;;;;;;;3.28;0.22;;;;;;;0.89;77.64;99446.53;4960692;28;20053;-54
2022/01/05 05:55:41;;;;;;;1.67;0.40;;;;;;;0.91;78.93;99444.03;4964508;28;20483;-54
2022/01/05 05:58:07;;;;;;;6.55;0.88;;;;;;;0.87;78.55;99448.16;4966650;28;20105;-52
2022/01/05 06:00:34;;;;;;;9.73;1.10;;;;;;;0.86;78.73;99446.44;4961081;28;20047;-54
2022/01/05 06:03:01;;;;;;;1.67;0.52;;;;;;;0.84;78.44;99450.66;4962922;28;20396;-52
2022/01/05 06:05:28;;;;;;;3.08;0.80;;;;;;;0.85;77.76;99445.56;4963404;28;20046;-53
2022/01/05 06:07:54;;;;;;;8.63;0.75;;;;;;;0.80;78.68;99457.34;4962048;28;20047;-50
2022/01/05 06:10:21;;;;;;;3.80;1.02;;;;;;;0.82;78.10;99471.00;4965162;28;20051;-49
2022/01/05 06:12:47;;;;;;;3.50;0.65;;;;;;;0.79;78.61;99463.25;4966944;28;20109;-55
2022/01/05 06:15:14;;;;;;;1.65;0.40;;;;;;;0.78;79.06;99464.09;4966913;28;20042;-51
2022/01/05 06:17:41;;;;;;;2.75;0.80;;;;;;;0.82;78.89;99475.22;4969064;28;20483;-49
2022/01/05 06:20:10;;;;;;;4.30;0.75;;;;;;;0.85;78.76;99470.22;4967025;28;20051;-52
2022/01/05 06:22:40;;;;;;;7.38;1.35;;;;;;;0.87;79.11;99473.66;4966371;28;20051;-54
2022/01/05 06:25:08;;;;;;;1.15;0.82;;;;;;;0.83;79.00;99484.59;4966607;28;20050;-53
2022/01/05 06:27:35;;;;;;;10.20;1.10;;;;;;;0.86;79.16;99487.22;4964702;28;20065;-55
2022/01/05 06:30:06;;;;;;;4.03;1.05;;;;;;;0.85;78.96;99480.41;4967115;28;20693;-55
2022/01/05 06:32:35;;;;;;;5.70;1.00;;;;;;;0.87;78.59;99483.84;4965725;28;20110;-50
2022/01/05 06:35:03;;;;;;;7.72;1.90;;;;;;;0.86;78.43;99492.34;4961760;28;20086;-51
2022/01/05 06:37:30;;;;;;;1.40;0.63;;;;;;;0.80;78.46;99493.03;4969592;28;21441;-52
2022/01/05 06:39:57;;;;;;;6.53;1.17;;;;;;;0.86;78.75;99502.53;4966389;28;20051;-54
2022/01/05 06:42:24;;;;;;;2.92;0.63;;;;;;;0.85;78.65;99500.81;4964265;28;20092;-52
2022/01/05 06:44:51;;;;;;;3.95;0.75;;;;;;;0.88;78.52;99506.00;4967626;28;20054;-57
2022/01/05 06:47:17;;;;;;;5.90;0.90;;;;;;;0.90;78.49;99512.00;4966071;28;20635;-53
2022/01/05 06:49:44;;;;;;;3.45;0.93;;;;;;;0.93;78.10;99517.19;4965910;28;20445;-50
2022/01/05 06:52:12;;;;;;;5.68;0.43;;;;;;;0.96;77.99;99513.84;4962626;28;20051;-50
2022/01/05 06:54:40;;;;;;;2.15;0.55;;;;;;;0.95;78.48;99512.97;4961904;28;20047;-52
2022/01/05 06:57:08;;;;;;;3.67;0.88;;;;;;;0.99;78.29;99514.81;4963955;28;20142;-54
2022/01/05 06:59:35;;;;;;;1.52;0.85;;;;;;;1.00;77.97;99521.63;4962035;28;20527;-59
2022/01/05 07:02:03;;;;;;;2.17;0.68;;;;;;;0.97;78.65;99516.44;4961364;28;20050;-51
2022/01/05 07:04:30;;;;;;;2.97;1.17;;;;;;;0.99;78.57;99519.91;4962959;28;20699;-53
2022/01/05 07:06:57;;;;;;;4.80;0.82;;;;;;;1.05;78.86;99518.34;4966556;28;20054;-54
2022/01/05 07:09:24;;;;;;;4.65;1.75;;;;;;;1.03;79.01;99520.84;4960471;28;20089;-54
2022/01/05 07:11:51;;;;;;;3.35;1.52;;;;;;;1.02;78.62;99519.13;4966280;28;20101;-52
2022/01/05 07:14:17;;;;;;;4.53;0.60;;;;;;;0.99;79.05;99535.22;4964378;28;20113;-54
2022/01/05 07:16:44;;;;;;;2.22;0.60;;;;;;;1.03;78.25;99546.34;4963700;28;20109;-51
2022/01/05 07:19:10;;;;;;;6.25;1.10;;;;;;;1.00;78.51;99552.25;4966342;28;20448;-54
2022/01/05 07:21:37;;;;;;;1.83;0.43;;;;;;;1.04;77.66;99552.34;4963615;28;20096;-58
2022/01/05 07:24:04;;;;;;;4.85;1.27;;;;;;;1.05;78.76;99554.06;4965592;28;20491;-54
2022/01/05 07:26:31;;;;;;;7.10;0.55;;;;;;;1.01;78.40;99564.16;4961695;28;20046;-52
2022/01/05 07:28:58;;;;;;;2.35;0.30;;;;;;;1.01;77.68;99564.16;4963166;28;20847;-54
2022/01/05 07:31:25;;;;;;;1.98;0.63;;;;;;;0.99;79.15;99568.38;4965390;28;20127;-54
2022/01/05 07:33:51;;;;;;;3.72;0.85;;;;;;;1.00;78.78;99572.66;4962588;28;20062;-52
2022/01/05 07:36:18;;;;;;;1.15;0.52;;;;;;;0.96;78.97;99570.84;4958610;28;20102;-54
2022/01/05 07:38:45;;;;;;;4.38;1.27;;;;;;;0.95;79.14;99574.19;4960255;28;20042;-50
2022/01/05 07:41:12;;;;;;;1.80;0.52;;;;;;;0.92;78.26;99570.69;4963089;28;20057;-54
2022/01/05 07:43:38;;;;;;;4.78;0.90;;;;;;;0.94;77.90;99576.72;4961397;28;20082;-49
2022/01/05 07:46:05;;;;;;;1.40;0.40;;;;;;;0.90;77.91;99580.84;4959577;28;20311;-54
2022/01/05 07:48:32;;;;;;;7.25;0.63;;;;;;;0.90;79.00;99575.75;4959872;28;20039;-50
2022/01/05 07:50:59;;;;;;;2.22;0.60;;;;;;;0.88;78.80;99573.16;4962670;28;20121;-53
2022/01/05 07:53:25;;;;;;;1.80;0.50;;;;;;;0.92;78.07;99569.03;4962746;28;20756;-58
2022/01/05 07:55:52;;;;;;;2.55;0.57;;;;;;;0.94;78.70;99566.50;4957803;28;20063;-55
2022/01/05 07:58:21;;;;;;;3.00;0.75;;;;;;;0.95;78.43;99576.72;4962003;28;20054;-49
2022/01/05 08:00:47;;;;;;;4.43;1.27;;;;;;;0.98;78.27;99589.56;4922314;28;1146241;-54
2022/01/05 08:03:14;;;;;;;4.93;1.00;;;;;;;0.97;78.79;99594.63;4958967;28;20081;-51
2022/01/05 08:05:41;;;;;;;5.65;1.40;;;;;;;0.97;79.29;99598.06;4963998;28;20391;-48
2022/01/05 08:08:08;;;;;;;3.17;0.75;;;;;;;0.98;79.13;99606.59;4959997;28;20050;-52
2022/01/05 08:10:34;;;;;;;2.47;0.60;;;;;;;0.98;78.10;99620.19;4961719;28;20105;-55
2022/01/05 08:13:01;;;;;;;3.05;0.52;;;;;;;1.00;78.15;99628.75;4958411;28;20054;-53
2022/01/05 08:15:28;;;;;;;2.58;0.93;;;;;;;1.02;78.48;99621.16;4961611;28;20047;-55
2022/01/05 08:17:54;;;;;;;5.72;1.17;;;;;;;1.04;79.11;99634.78;4961118;28;20133;-53
2022/01/05 08:20:21;;;;;;;5.70;1.27;;;;;;;1.06;77.68;99639.94;4968733;28;20058;-50
2022/01/05 08:22:48;;;;;;;7.03;0.80;;;;;;;1.05;79.22;99656.06;4963329;28;20054;-50
2022/01/05 08:25:16;;;;;;;10.02;1.13;;;;;;;1.06;78.32;99656.13;4960566;28;20046;-48
2022/01/05 08:27:47;;;;;;;3.58;0.88;;;;;;;1.10;78.14;99664.72;4960807;28;20051;-49
2022/01/05 08:30:17;;;;;;;5.15;0.95;;;;;;;1.13;78.73;99663.16;4961512;28;20206;-53
2022/01/05 08:32:46;;;;;;;7.03;0.98;;;;;;;1.17;77.90;99668.31;4964871;28;20682;-57
2022/01/05 08:35:16;;;;;;;2.38;0.43;;;;;;;1.26;77.90;99666.94;4960639;28;20109;-55
2022/01/05 08:37:44;;;;;;;2.30;0.55;;;;;;;1.37;78.05;99674.00;4962718;28;20363;-56
2022/01/05 08:40:16;;;;;;;4.80;0.80;;;;;;;1.41;77.76;99671.59;4963786;28;20046;-52
2022/01/05 08:42:44;;;;;;;9.52;1.08;;;;;;;1.58;77.54;99681.41;4962894;28;20059;-52
2022/01/05 08:45:11;;;;;;;3.67;0.70;;;;;;;1.78;76.31;99681.97;4960565;28;20486;-53
2022/01/05 08:47:38;;;;;;;1.27;1.17;;;;;;;2.03;76.28;99685.16;4965287;28;20086;-53
2022/01/05 08:50:05;;;;;;;13.23;1.23;;;;;;;2.31;75.58;99687.56;4962496;28;20058;-49
2022/01/05 08:52:32;;;;;;;4.07;0.93;;;;;;;2.49;74.16;99682.03;4958710;28;20059;-51
2022/01/05 08:54:58;;;;;;;3.15;0.40;;;;;;;2.64;73.52;99685.78;4962162;28;20107;-49
2022/01/05 08:57:25;;;;;;;1.50;0.63;;;;;;;2.82;73.04;99686.22;4963979;28;20404;-53
2022/01/05 08:59:52;;;;;;;3.25;0.63;;;;;;;3.02;73.29;99688.38;4959674;28;20055;-52
2022/01/05 09:02:18;;;;;;;5.13;1.00;;;;;;;3.05;72.26;99698.69;4966767;28;20130;-51
2022/01/05 09:04:48;;;;;;;10.93;0.90;;;;;;;3.24;72.04;99706.75;4965171;28;20047;-46
2022/01/05 09:07:15;;;;;;;6.40;0.90;;;;;;;3.56;71.80;99706.56;4959699;28;20054;-52
2022/01/05 09:09:42;;;;;;;6.20;1.45;;;;;;;3.72;69.92;99723.09;4959807;28;20093;-51
2022/01/05 09:12:09;;;;;;;3.67;0.63;;;;;;;3.95;70.53;99716.72;4964235;28;20046;-55
2022/01/05 09:14:37;;;;;;;2.35;0.73;;;;;;;4.31;70.55;99720.78;4962288;28;20051;-54
2022/01/05 09:17:04;;;;;;;3.03;1.17;;;;;;;4.59;68.96;99722.94;4962192;28;20454;-50
2022/01/05 09:19:32;;;;;;;5.28;0.68;;;;;;;4.96;68.16;99730.38;4959285;28;20110;-51
2022/01/05 09:21:59;;;;;;;2.92;1.00;;;;;;;5.34;66.68;99740.31;4962792;28;20051;-55
2022/01/05 09:24:46;;;;;;;5.50;0.77;;;;;;;5.65;66.32;99743.28;4967137;28;20573;-49
2022/01/05 09:27:13;;;;;;;4.50;1.05;;;;;;;5.81;65.27;99746.03;4960444;28;20054;-51
2022/01/05 09:29:40;;;;;;;4.95;0.85;;;;;;;6.02;65.17;99754.84;4964643;28;20105;-58
2022/01/05 09:32:09;;;;;;;4.80;1.20;;;;;;;6.13;62.84;99752.41;4959334;28;20058;-53
2022/01/05 09:34:37;;;;;;;2.28;0.95;;;;;;;6.34;62.85;99750.91;4964472;28;20050;-52
2022/01/05 09:37:12;;;;;;;1.45;0.95;;;;;;;6.47;63.11;99751.88;4957937;28;20121;-53
2022/01/05 09:42:26;;;;;;;8.65;1.00;;;;;;;7.23;61.87;99769.66;4957893;28;20154;-58
2022/01/05 09:44:53;;;;;;;2.30;0.80;;;;;;;7.41;61.34;99774.94;4962521;28;20050;-52
2022/01/05 09:47:32;;;;;;;1.58;1.23;;;;;;;7.52;60.13;99771.53;4954772;28;20050;-52
2022/01/05 09:50:03;;;;;;;3.63;1.10;;;;;;;7.92;60.15;99776.88;4967715;28;20118;-53
2022/01/05 09:52:31;;;;;;;6.22;1.05;;;;;;;8.38;60.50;99783.03;4961294;28;20054;-57
2022/01/05 09:54:58;;;;;;;8.05;0.60;;;;;;;8.63;59.68;99780.50;4957158;28;20058;-58
2022/01/05 09:57:26;;;;;;;2.00;0.95;;;;;;;8.77;58.57;99789.97;4961963;28;20065;-50
2022/01/05 09:59:52;;;;;;;5.65;0.80;;;;;;;9.28;59.12;99789.13;4957595;28;20101;-54
2022/01/05 10:02:19;;;;;;;6.85;1.38;;;;;;;9.78;58.87;99795.00;4960610;28;20118;-52
2022/01/05 10:04:47;;;;;;;7.03;1.83;;;;;;;10.21;57.17;99799.16;4961996;28;20046;-55
2022/01/05 10:07:14;;;;;;;8.27;2.00;;;;;;;10.70;58.81;99807.50;4958005;28;20051;-56
2022/01/05 10:09:43;;;;;;;4.35;1.17;;;;;;;11.09;57.89;99820.16;4964056;28;20051;-49
2022/01/05 10:12:11;;;;;;;5.53;1.27;;;;;;;11.57;56.60;99821.44;4964598;28;20051;-50
2022/01/05 10:14:41;;;;;;;8.27;1.77;;;;;;;12.01;56.59;99827.00;4955938;28;20110;-54
2022/01/05 10:17:13;;;;;;;7.38;1.23;;;;;;;12.27;54.92;99838.81;4959577;28;20046;-53
2022/01/05 10:19:41;;;;;;;4.40;1.35;;;;;;;12.53;53.84;99847.97;4962420;28;20105;-52
2022/01/05 10:22:33;;;;;;;8.85;1.73;;;;;;;12.70;50.86;99846.91;4960580;28;21570;-49
2022/01/05 10:25:07;;;;;;;7.15;1.60;;;;;;;12.79;51.51;99841.56;4955948;28;20070;-55
2022/01/05 10:27:35;;;;;;;9.27;1.75;;;;;;;13.04;51.71;99851.56;4956113;28;20051;-56
2022/01/05 10:30:06;;;;;;;5.35;0.93;;;;;;;13.24;51.38;99850.38;4964682;28;20660;-55
2022/01/05 10:32:35;;;;;;;7.40;1.58;;;;;;;13.31;50.77;99858.94;4958777;28;20741;-56
2022/01/05 10:35:07;;;;;;;6.65;1.60;;;;;;;13.42;50.29;99861.34;4962607;28;20533;-53
2022/01/05 10:37:35;;;;;;;8.82;1.63;;;;;;;13.67;50.65;99863.53;4973145;28;20102;-52
2022/01/05 10:40:08;;;;;;;10.27;2.15;;;;;;;13.62;48.95;99868.84;4960700;28;20529;-54
2022/01/05 10:42:36;;;;;;;7.95;1.10;;;;;;;13.45;47.26;99871.72;4959353;28;20043;-49
2022/01/05 10:45:06;;;;;;;4.32;1.00;;;;;;;13.42;47.57;99871.75;4962618;28;20046;-60
2022/01/05 10:47:34;;;;;;;5.97;1.50;;;;;;;13.44;48.48;99872.59;4963354;28;20052;-54
2022/01/05 10:50:03;;;;;;;3.90;1.27;;;;;;;13.26;47.78;99879.81;4960943;28;20545;-56
2022/01/05 10:52:32;;;;;;;7.35;1.33;;;;;;;12.68;47.52;99879.84;4962527;28;20467;-56
2022/01/05 10:55:11;;;;;;;9.15;1.42;;;;;;;11.71;46.81;99891.31;4966671;28;20656;-55
2022/01/05 10:57:39;;;;;;;4.75;0.88;;;;;;;10.71;49.67;99892.09;4968505;28;20055;-54
2022/01/05 11:00:07;;;;;;;7.60;1.27;;;;;;;10.14;51.92;99893.22;4961608;28;20047;-52
2022/01/05 11:02:35;;;;;;;5.68;1.17;;;;;;;9.45;52.76;99884.72;4963734;28;20069;-58
2022/01/05 11:05:13;;;;;;;8.43;1.98;;;;;;;8.95;53.21;99890.72;4959941;28;20054;-57
2022/01/05 11:07:42;;;;;;;4.45;0.88;;;;;;;8.52;55.07;99890.59;4964718;28;20114;-55
2022/01/05 11:10:12;;;;;;;3.83;1.65;;;;;;;8.23;55.91;99887.94;4962207;28;20109;-55
2022/01/05 11:12:42;;;;;;;5.32;0.98;;;;;;;7.98;57.01;99898.09;4963097;28;20047;-50
2022/01/05 11:15:20;;;;;;;3.47;0.93;;;;;;;7.91;56.31;99898.09;4967167;28;20063;-55
2022/01/05 11:18:10;;;;;;;9.98;1.63;;;;;;;7.86;56.10;99905.78;4963393;28;20053;-49
2022/01/05 11:20:51;;;;;;;5.32;1.33;;;;;;;7.57;57.74;99909.03;4960547;28;20644;-57
2022/01/05 11:23:20;;;;;;;3.47;1.15;;;;;;;7.39;58.57;99918.34;4958559;28;20051;-53
2022/01/05 11:25:48;;;;;;;4.50;0.50;;;;;;;7.32;58.14;99920.00;4965317;28;20054;-56
2022/01/05 11:28:19;;;;;;;4.65;0.93;;;;;;;7.29;58.24;99924.25;4977839;28;20054;-57
2022/01/05 11:30:47;;;;;;;7.03;0.95;;;;;;;7.05;59.10;99930.91;4963467;28;20046;-55
2022/01/05 11:33:14;;;;;;;4.75;0.63;;;;;;;6.91;59.71;99923.94;4966998;28;20102;-56
2022/01/05 11:35:42;;;;;;;6.05;1.10;;;;;;;6.97;61.35;99932.56;4968398;28;20554;-59
2022/01/05 11:38:10;;;;;;;4.28;0.98;;;;;;;7.06;60.42;99927.50;4968608;28;20586;-56
2022/01/05 11:40:45;;;;;;;4.03;1.10;;;;;;;6.97;60.99;99922.25;4964443;28;20078;-55
2022/01/05 11:43:21;;;;;;;6.15;0.98;;;;;;;6.97;59.64;99922.25;4969230;28;20511;-55
2022/01/05 11:45:48;;;;;;;5.93;1.02;;;;;;;7.00;61.17;99924.88;4965041;28;20051;-58
2022/01/05 11:48:26;;;;;;;7.80;1.30;;;;;;;6.99;61.74;99933.44;4964306;28;20392;-54